createdAt,value
2022-12-08T00:00:33.586Z,3.90
2022-12-08T00:05:59.575Z,0.80
2022-12-08T00:20:21.752Z,0.60
2022-12-08T00:23:01.236Z,0.60
2022-12-08T00:25:31.646Z,-0.60
2022-12-08T00:28:13.695Z,0.60
2022-12-08T00:30:43.147Z,0.80
2022-12-08T00:33:17.186Z,0.50
2022-12-08T00:41:44.131Z,-0.50
2022-12-08T00:44:20.323Z,0.50
2022-12-08T00:46:52.247Z,0.50
2022-12-08T00:52:04.244Z,0.50
2022-12-08T00:54:43.667Z,0.00
2022-12-08T00:57:14.667Z,0.30
2022-12-08T00:59:44.936Z,2.20
2022-12-08T01:02:24.667Z,0.50
2022-12-08T01:07:25.768Z,1.70
2022-12-08T01:09:55.135Z,2.30
2022-12-08T01:14:55.005Z,0.40
2022-12-08T01:17:24.096Z,-0.40
2022-12-08T01:22:31.375Z,0.30
2022-12-08T01:30:06.671Z,0.20
2022-12-08T01:33:06.053Z,-0.30
2022-12-08T01:38:05.406Z,1.80
2022-12-08T01:45:35.570Z,0.20
2022-12-08T01:48:16.092Z,0.20
2022-12-08T01:50:48.539Z,-1.40
2022-12-08T01:53:23.539Z,1.40
2022-12-08T01:55:56.567Z,0.20
2022-12-08T01:58:37.224Z,-0.80
2022-12-08T02:01:07.210Z,0.20
2022-12-08T02:03:45.454Z,0.20
2022-12-08T02:06:17.157Z,0.20
2022-12-08T02:09:21.817Z,0.20
2022-12-08T02:12:29.543Z,0.10
2022-12-08T02:15:16.959Z,0.20
2022-12-08T02:18:47.869Z,0.20
2022-12-08T02:24:19.055Z,0.60
2022-12-08T02:27:11.577Z,0.20
2022-12-08T02:29:44.416Z,0.30
2022-12-08T02:32:45.911Z,0.20
2022-12-08T02:35:30.306Z,0.20
2022-12-08T02:38:14.173Z,-0.50
2022-12-08T02:41:04.169Z,0.20
2022-12-08T02:43:45.941Z,0.10
2022-12-08T02:46:25.757Z,0.10
2022-12-08T02:56:38.015Z,-1.40
2022-12-08T02:59:26.501Z,0.10
2022-12-08T03:02:04.251Z,0.10
2022-12-08T03:04:52.978Z,-1.70
2022-12-08T03:07:25.162Z,0.10
2022-12-08T03:10:18.230Z,0.10
2022-12-08T03:13:07.373Z,2.00
2022-12-08T03:15:39.323Z,0.10
2022-12-08T03:18:11.853Z,0.00
2022-12-08T03:20:46.064Z,0.20
2022-12-08T03:23:18.759Z,0.20
2022-12-08T03:25:59.440Z,2.20
2022-12-08T03:28:30.320Z,0.20
2022-12-08T03:31:06.308Z,-1.20
2022-12-08T03:33:38.597Z,2.00
2022-12-08T03:36:14.368Z,0.20
2022-12-08T03:38:57.497Z,-0.40
2022-12-08T03:41:27.818Z,-0.50
2022-12-08T03:44:02.470Z,0.20
2022-12-08T03:49:02.759Z,1.30
2022-12-08T03:53:59.592Z,0.20
2022-12-08T03:56:34.094Z,0.30
2022-12-08T04:01:32.097Z,0.30
2022-12-08T04:06:40.257Z,0.30
2022-12-08T04:22:04.210Z,0.40
2022-12-08T04:27:10.570Z,0.50
2022-12-08T04:29:44.383Z,0.10
2022-12-08T04:32:21.944Z,-0.90
2022-12-08T04:37:28.902Z,0.40
2022-12-08T04:42:27.109Z,0.80
2022-12-08T04:52:29.089Z,0.30
2022-12-08T04:57:24.335Z,0.40
2022-12-08T05:02:20.379Z,0.40
2022-12-08T05:14:49.151Z,0.80
2022-12-08T05:17:18.100Z,0.30
2022-12-08T05:19:45.746Z,0.40
2022-12-08T05:22:17.143Z,0.20
2022-12-08T05:24:53.356Z,0.40
2022-12-08T05:27:30.210Z,0.40
2022-12-08T05:30:04.158Z,0.40
2022-12-08T05:32:43.152Z,-0.60
2022-12-08T05:35:11.035Z,0.50
2022-12-08T05:37:40.571Z,1.40
2022-12-08T05:42:42.219Z,0.00
2022-12-08T05:45:10.907Z,0.50
2022-12-08T05:47:46.259Z,0.50
2022-12-08T05:50:17.598Z,0.50
2022-12-08T05:52:55.085Z,0.50
2022-12-08T05:58:06.114Z,0.90
2022-12-08T06:00:38.433Z,0.50
2022-12-08T06:03:06.583Z,0.50
2022-12-08T06:05:44.317Z,0.20
2022-12-08T06:08:22.603Z,0.60
2022-12-08T06:16:32.302Z,0.40
2022-12-08T06:23:58.319Z,0.60
2022-12-08T06:26:25.622Z,0.60
2022-12-08T06:28:53.162Z,0.90
2022-12-08T06:31:26.881Z,0.60
2022-12-08T06:33:55.093Z,1.30
2022-12-08T06:36:25.595Z,0.30
2022-12-08T06:38:52.823Z,0.70
2022-12-08T06:46:17.383Z,0.80
2022-12-08T06:48:45.070Z,0.20
2022-12-08T06:51:14.632Z,2.10
2022-12-08T06:53:42.433Z,0.60
2022-12-08T06:56:10.264Z,0.50
2022-12-08T06:58:37.404Z,0.50
2022-12-08T07:01:09.289Z,0.80
2022-12-08T07:03:36.648Z,1.80
2022-12-08T07:06:04.714Z,0.60
2022-12-08T07:08:32.860Z,0.50
2022-12-08T07:11:00.115Z,0.00
2022-12-08T07:13:27.096Z,0.30
2022-12-08T07:15:53.968Z,-0.10
2022-12-08T07:18:20.923Z,0.70
2022-12-08T07:20:47.695Z,0.40
2022-12-08T07:23:14.900Z,-0.10
2022-12-08T07:25:41.839Z,-0.70
2022-12-08T07:28:10.740Z,0.20
2022-12-08T07:30:38.977Z,0.70
2022-12-08T07:33:06.569Z,0.20
2022-12-08T07:35:35.171Z,-1.00
2022-12-08T07:38:02.649Z,-0.50
2022-12-08T07:40:29.638Z,1.80
2022-12-08T07:42:56.586Z,-0.10
2022-12-08T07:45:28.297Z,3.20
2022-12-08T07:52:52.731Z,1.70
2022-12-08T07:55:19.717Z,-0.10
2022-12-08T07:57:46.593Z,0.00
2022-12-08T08:00:14.251Z,0.00
2022-12-08T08:02:42.446Z,0.20
2022-12-08T08:05:10.110Z,0.60
2022-12-08T08:10:06.811Z,-0.20
2022-12-08T08:15:02.127Z,0.10
2022-12-08T08:17:30.102Z,0.30
2022-12-08T08:22:25.706Z,-0.60
2022-12-08T08:24:53.275Z,0.20
2022-12-08T08:27:20.429Z,0.20
2022-12-08T08:29:47.377Z,-0.20
2022-12-08T08:32:14.193Z,1.20
2022-12-08T08:34:41.450Z,0.60
2022-12-08T08:37:08.655Z,1.30
2022-12-08T08:39:36.247Z,0.30
2022-12-08T08:42:03.059Z,0.40
2022-12-08T08:44:30.018Z,0.50
2022-12-08T08:46:57.011Z,1.00
2022-12-08T08:51:51.398Z,0.60
2022-12-08T08:54:18.275Z,0.50
2022-12-08T08:56:45.303Z,0.60
2022-12-08T08:59:12.343Z,0.50
2022-12-08T09:01:39.230Z,0.60
2022-12-08T09:04:06.194Z,0.50
2022-12-08T09:06:33.202Z,1.20
2022-12-08T09:09:00.323Z,-0.70
2022-12-08T09:11:27.449Z,0.90
2022-12-08T09:13:54.851Z,0.90
2022-12-08T09:16:22.945Z,0.70
2022-12-08T09:18:50.589Z,0.70
2022-12-08T09:21:22.399Z,-0.30
2022-12-08T09:23:51.015Z,0.40
2022-12-08T09:26:18.081Z,0.40
2022-12-08T09:28:46.516Z,0.80
2022-12-08T09:31:14.562Z,0.50
2022-12-08T09:33:42.564Z,0.30
2022-12-08T09:36:11.173Z,-0.60
2022-12-08T09:38:39.289Z,0.30
2022-12-08T09:41:22.747Z,0.30
2022-12-08T09:43:58.730Z,-0.60
2022-12-08T09:46:28.686Z,0.30
2022-12-08T09:48:59.387Z,-0.10
2022-12-08T09:51:38.742Z,2.90
2022-12-08T09:54:24.160Z,-0.80
2022-12-08T09:56:55.446Z,1.80
2022-12-08T09:59:34.327Z,0.60
2022-12-08T10:02:03.148Z,0.70
2022-12-08T10:04:33.941Z,0.60
2022-12-08T10:09:54.973Z,1.40
2022-12-08T10:13:07.218Z,2.00
2022-12-08T10:15:44.747Z,3.80
2022-12-08T10:18:18.826Z,4.00
2022-12-08T10:20:48.579Z,4.80
2022-12-08T10:23:34.791Z,3.90
2022-12-08T10:26:21.535Z,4.10
2022-12-08T10:28:49.039Z,4.40
2022-12-08T10:31:24.302Z,4.60
2022-12-08T10:33:59.421Z,4.60
2022-12-08T10:36:58.193Z,4.60
2022-12-08T10:39:36.074Z,4.70
2022-12-08T10:42:09.875Z,4.90
2022-12-08T10:45:10.409Z,5.20
2022-12-08T10:47:45.063Z,5.50
2022-12-08T10:50:22.427Z,5.80
2022-12-08T10:52:56.455Z,6.00
2022-12-08T10:55:23.493Z,6.10
2022-12-08T10:57:50.643Z,6.30
2022-12-08T11:00:24.234Z,6.50
2022-12-08T11:03:03.993Z,6.60
2022-12-08T11:05:36.264Z,6.70
2022-12-08T11:08:05.776Z,6.80
2022-12-08T11:10:42.286Z,6.60
2022-12-08T11:13:26.078Z,5.60
2022-12-08T11:15:56.927Z,5.90
2022-12-08T11:18:28.313Z,5.40
2022-12-08T11:21:07.702Z,4.90
2022-12-08T11:23:36.489Z,4.60
2022-12-08T11:26:12.347Z,4.20
2022-12-08T11:28:39.802Z,5.30
2022-12-08T11:31:33.741Z,3.10
2022-12-08T11:34:01.910Z,4.60
2022-12-08T11:36:32.430Z,3.00
2022-12-08T11:39:02.910Z,3.90
2022-12-08T11:41:37.323Z,3.10
2022-12-08T11:44:32.592Z,3.30
2022-12-08T11:47:06.628Z,3.40
2022-12-08T11:49:37.850Z,3.60
2022-12-08T11:52:17.111Z,3.90
2022-12-08T11:54:52.470Z,4.20
2022-12-08T11:57:22.990Z,4.50
2022-12-08T11:59:52.010Z,4.50
2022-12-08T12:02:26.044Z,4.70
2022-12-08T12:05:05.225Z,4.90
2022-12-08T12:08:17.406Z,7.40
2022-12-08T12:11:10.526Z,9.40
2022-12-08T12:14:09.144Z,5.10
2022-12-08T12:16:42.039Z,5.70
2022-12-08T12:19:15.784Z,4.80
2022-12-08T12:21:56.299Z,4.20
2022-12-08T12:24:35.576Z,4.80
2022-12-08T12:27:19.876Z,4.70
2022-12-08T12:29:55.587Z,3.70
2022-12-08T12:32:24.322Z,4.50
2022-12-08T12:34:55.466Z,4.50
2022-12-08T12:37:41.649Z,4.30
2022-12-08T12:40:22.322Z,4.10
2022-12-08T12:43:09.859Z,4.20
2022-12-08T12:45:43.373Z,4.00
2022-12-08T12:48:20.936Z,5.00
2022-12-08T12:50:52.736Z,5.20
2022-12-08T12:53:19.628Z,2.10
2022-12-08T12:55:46.594Z,3.80
2022-12-08T12:58:28.887Z,4.20
2022-12-08T13:01:13.861Z,3.00
2022-12-08T13:06:14.656Z,3.90
2022-12-08T13:08:53.967Z,4.10
2022-12-08T13:11:23.027Z,4.30
2022-12-08T13:14:03.642Z,3.40
2022-12-08T13:16:38.581Z,4.40
2022-12-08T13:19:14.087Z,3.70
2022-12-08T13:24:14.526Z,3.80
2022-12-08T13:26:50.052Z,3.60
2022-12-08T13:29:16.889Z,3.00
2022-12-08T13:31:52.005Z,3.00
2022-12-08T13:34:23.673Z,3.00
2022-12-08T13:37:18.931Z,3.00
2022-12-08T13:39:53.557Z,4.50
2022-12-08T13:42:36.209Z,2.90
2022-12-08T13:45:30.159Z,2.90
2022-12-08T13:48:35.581Z,2.80
2022-12-08T13:53:15.835Z,3.50
2022-12-08T13:57:12.939Z,2.20
2022-12-08T13:59:45.244Z,3.40
2022-12-08T14:02:47.824Z,4.20
2022-12-08T14:05:19.578Z,2.90
2022-12-08T14:07:51.982Z,2.60
2022-12-08T14:10:20.704Z,2.60
2022-12-08T14:13:02.793Z,2.80
2022-12-08T14:15:37.282Z,2.30
2022-12-08T14:20:46.815Z,2.30
2022-12-08T14:25:49.266Z,2.30
2022-12-08T14:28:16.973Z,2.10
2022-12-08T14:30:44.320Z,2.00
2022-12-08T14:33:19.285Z,2.40
2022-12-08T14:35:52.396Z,1.70
2022-12-08T14:38:21.226Z,2.00
2022-12-08T14:41:06.591Z,1.60
2022-12-08T14:43:33.538Z,1.30
2022-12-08T14:46:18.533Z,0.90
2022-12-08T14:51:26.689Z,1.20
2022-12-08T14:53:55.781Z,2.30
2022-12-08T14:56:42.351Z,1.20
2022-12-08T14:59:19.937Z,1.10
2022-12-08T15:01:49.694Z,0.80
2022-12-08T15:04:25.550Z,1.00
2022-12-08T15:07:23.945Z,0.50
2022-12-08T15:10:10.508Z,0.60
2022-12-08T15:12:37.399Z,0.00
2022-12-08T15:15:10.413Z,0.60
2022-12-08T15:17:40.369Z,2.30
2022-12-08T15:20:27.550Z,0.20
2022-12-08T15:22:58.673Z,0.50
2022-12-08T15:30:20.593Z,-0.60
2022-12-08T15:32:47.781Z,0.00
2022-12-08T15:35:16.015Z,0.30
2022-12-08T15:37:43.105Z,0.40
2022-12-08T15:40:17.758Z,0.30
2022-12-08T15:42:44.739Z,-0.10
2022-12-08T15:45:16.696Z,0.20
2022-12-08T15:47:44.934Z,0.70
2022-12-08T15:50:20.991Z,0.10
2022-12-08T15:52:48.854Z,0.10
2022-12-08T15:55:18.234Z,0.10
2022-12-08T16:00:52.488Z,-1.80
2022-12-08T16:04:02.637Z,-0.10
2022-12-08T16:17:26.607Z,-1.00
2022-12-08T16:25:18.938Z,-0.10
2022-12-08T16:30:36.710Z,-0.90
2022-12-08T16:33:04.058Z,-0.90
2022-12-08T16:37:59.309Z,-2.90
2022-12-08T16:40:26.374Z,1.70
2022-12-08T16:42:53.528Z,-0.30
2022-12-08T16:45:23.485Z,-1.10
2022-12-08T16:47:52.890Z,0.90
2022-12-08T16:50:31.868Z,1.50
2022-12-08T16:53:05.059Z,0.50
2022-12-08T16:55:32.843Z,-1.50
2022-12-08T16:58:00.001Z,-1.70
2022-12-08T17:00:29.030Z,-2.00
2022-12-08T17:02:56.513Z,-1.70
2022-12-08T17:05:25.502Z,-2.00
2022-12-08T17:07:53.833Z,-2.00
2022-12-08T17:10:23.638Z,-2.20
2022-12-08T17:12:51.115Z,-2.60
2022-12-08T17:15:21.136Z,-2.40
2022-12-08T17:17:48.797Z,-1.30
2022-12-08T17:20:18.701Z,-1.40
2022-12-08T17:25:13.868Z,-2.60
2022-12-08T17:27:41.726Z,-1.10
2022-12-08T17:30:11.624Z,-4.70
2022-12-08T17:32:39.005Z,-2.60
2022-12-08T17:35:07.434Z,0.60
2022-12-08T17:40:02.170Z,-0.10
2022-12-08T17:42:29.163Z,-0.40
2022-12-08T17:44:56.253Z,-2.60
2022-12-08T17:47:23.298Z,-3.00
2022-12-08T17:52:17.834Z,-0.50
2022-12-08T17:54:44.778Z,-2.60
2022-12-08T17:57:11.746Z,-2.80
2022-12-08T18:04:33.604Z,-3.90
2022-12-08T18:09:30.471Z,-2.80
2022-12-08T18:21:49.211Z,-0.10
2022-12-08T18:24:19.347Z,-3.20
2022-12-08T18:26:46.544Z,-2.90
2022-12-08T18:29:13.832Z,-4.40
2022-12-08T18:31:40.759Z,-0.70
2022-12-08T18:34:07.642Z,-4.00
2022-12-08T18:36:34.837Z,-3.10
2022-12-08T18:39:07.200Z,-2.40
2022-12-08T18:41:37.349Z,-4.40
2022-12-08T18:44:04.405Z,-4.60
2022-12-08T18:46:31.439Z,-5.60
2022-12-08T18:48:59.361Z,-1.30
2022-12-08T18:51:26.776Z,-4.60
2022-12-08T18:58:48.580Z,-2.70
2022-12-08T19:03:48.872Z,-4.20
2022-12-08T19:06:25.539Z,-4.80
2022-12-08T19:08:52.798Z,-2.60
2022-12-08T19:11:22.833Z,-1.00
2022-12-08T19:13:50.325Z,-3.80
2022-12-08T19:18:44.992Z,-3.80
2022-12-08T19:21:12.715Z,-2.50
2022-12-08T19:23:40.447Z,-0.40
2022-12-08T19:26:08.470Z,-4.70
2022-12-08T19:28:35.367Z,-0.40
2022-12-08T19:31:07.216Z,-2.90
2022-12-08T19:33:34.439Z,-2.50
2022-12-08T19:36:06.913Z,-3.10
2022-12-08T19:38:54.020Z,-3.20
2022-12-08T19:44:39.916Z,-3.30
2022-12-08T19:47:07.131Z,-1.00
2022-12-08T19:49:34.345Z,-0.40
2022-12-08T19:52:01.599Z,-2.00
2022-12-08T19:56:56.394Z,-0.70
2022-12-08T19:59:26.411Z,-3.70
2022-12-08T20:01:57.840Z,-3.70
2022-12-08T20:04:27.098Z,-2.30
2022-12-08T20:06:56.575Z,-2.50
2022-12-08T20:09:24.593Z,-3.50
2022-12-08T20:24:14.111Z,-2.20
2022-12-08T20:26:41.211Z,-2.70
2022-12-08T20:29:08.356Z,-0.40
2022-12-08T20:34:02.781Z,-4.30
2022-12-08T20:36:30.109Z,-4.70
2022-12-08T20:38:57.339Z,-2.70
2022-12-08T20:43:52.523Z,-4.30
2022-12-08T20:46:20.213Z,-4.20
2022-12-08T20:48:47.785Z,-4.10
2022-12-08T20:51:20.021Z,-3.90
2022-12-08T20:53:48.707Z,-3.10
2022-12-08T20:56:17.591Z,-0.30
2022-12-08T20:58:45.115Z,-2.40
2022-12-08T21:01:19.543Z,-2.30
2022-12-08T21:04:08.994Z,-2.50
2022-12-08T21:07:03.416Z,-1.80
2022-12-08T21:12:09.745Z,-1.80
2022-12-08T21:14:40.659Z,-1.80
2022-12-08T21:17:09.370Z,-1.60
2022-12-08T21:19:43.704Z,-2.10
2022-12-08T21:22:18.482Z,-1.60
2022-12-08T21:32:19.249Z,-2.10
2022-12-08T21:34:46.852Z,-1.10
2022-12-08T21:37:18.369Z,-1.20
2022-12-08T21:39:50.355Z,-2.50
2022-12-08T21:42:43.415Z,-1.20
2022-12-08T21:45:16.485Z,-0.70
2022-12-08T21:47:44.785Z,-0.90
2022-12-08T21:50:16.788Z,-0.90
2022-12-08T21:52:48.629Z,-1.20
2022-12-08T21:55:17.090Z,1.20
2022-12-08T21:57:44.792Z,-0.80
2022-12-08T22:00:18.162Z,-0.70
2022-12-08T22:02:49.564Z,-1.30
2022-12-08T22:05:17.392Z,-0.90
2022-12-08T22:17:42.296Z,-0.60
2022-12-08T22:20:15.493Z,-0.40
2022-12-08T22:22:46.951Z,-0.50
2022-12-08T22:27:47.562Z,-0.40
2022-12-08T22:30:17.999Z,2.40
2022-12-08T22:32:49.823Z,-1.50
2022-12-08T22:35:17.104Z,-0.40
2022-12-08T22:38:02.597Z,0.20
2022-12-08T22:40:33.069Z,-1.00
2022-12-08T22:43:00.597Z,0.60
2022-12-08T22:45:33.197Z,0.80
2022-12-08T22:48:03.882Z,1.80
2022-12-08T22:53:03.970Z,-0.40
2022-12-08T22:55:32.474Z,-0.30
2022-12-08T22:58:02.133Z,-0.30
2022-12-08T23:00:37.977Z,-0.30
2022-12-08T23:03:06.385Z,-1.00
2022-12-08T23:05:38.078Z,-0.40
2022-12-08T23:08:12.598Z,-0.30
2022-12-08T23:10:40.470Z,-1.00
2022-12-08T23:13:14.345Z,-0.40
2022-12-08T23:18:16.639Z,-0.40
2022-12-08T23:20:44.110Z,-1.40
2022-12-08T23:25:48.514Z,-0.50
2022-12-08T23:33:25.221Z,-0.60
2022-12-08T23:35:57.698Z,-0.60
2022-12-08T23:38:31.252Z,-0.50
2022-12-08T23:41:04.753Z,-0.50
2022-12-08T23:46:04.705Z,-0.50
2022-12-08T23:51:09.315Z,-1.50
2022-12-08T23:53:37.284Z,-0.60
2022-12-08T23:56:10.626Z,-0.60
